createdAt,value
2018-05-26T00:00:11.959Z,1008.21
2018-05-26T00:01:11.980Z,1008.23
2018-05-26T00:02:12.006Z,1008.24
2018-05-26T00:03:12.035Z,1008.22
2018-05-26T00:04:12.056Z,1008.23
2018-05-26T00:05:12.088Z,1008.23
2018-05-26T00:06:12.113Z,1008.21
2018-05-26T00:07:12.133Z,1008.25
2018-05-26T00:08:12.169Z,1008.23
2018-05-26T00:09:12.181Z,1008.24
2018-05-26T00:10:12.208Z,1008.27
2018-05-26T00:11:12.229Z,1008.29
2018-05-26T00:12:12.262Z,1008.27
2018-05-26T00:13:12.281Z,1008.26
2018-05-26T00:14:12.305Z,1008.25
2018-05-26T00:15:12.332Z,1008.29
2018-05-26T00:16:12.355Z,1008.29
2018-05-26T00:17:12.384Z,1008.32
2018-05-26T00:18:12.400Z,1008.34
2018-05-26T00:19:12.443Z,1008.31
2018-05-26T00:20:12.449Z,1008.35
2018-05-26T00:21:12.482Z,1008.36
2018-05-26T00:22:12.504Z,1008.38
2018-05-26T00:23:12.530Z,1008.35
2018-05-26T00:24:12.553Z,1008.29
2018-05-26T00:25:12.576Z,1008.28
2018-05-26T00:26:12.607Z,1008.28
2018-05-26T00:27:12.629Z,1008.27
2018-05-26T00:28:12.651Z,1008.3
2018-05-26T00:29:12.679Z,1008.28
2018-05-26T00:30:12.704Z,1008.29
2018-05-26T00:31:12.725Z,1008.3
2018-05-26T00:32:12.748Z,1008.28
2018-05-26T00:33:12.778Z,1008.29
2018-05-26T00:34:12.795Z,1008.31
2018-05-26T00:35:12.821Z,1008.33
2018-05-26T00:36:12.845Z,1008.32
2018-05-26T00:37:12.876Z,1008.3
2018-05-26T00:38:12.897Z,1008.33
2018-05-26T00:39:12.924Z,1008.3
2018-05-26T00:40:12.943Z,1008.31
2018-05-26T00:41:12.969Z,1008.29
2018-05-26T00:42:12.993Z,1008.3
2018-05-26T00:43:13.027Z,1008.32
2018-05-26T00:44:13.037Z,1008.31
2018-05-26T00:45:13.118Z,1008.35
2018-05-26T00:46:16.126Z,1008.34
2018-05-26T00:47:13.113Z,1008.36
2018-05-26T00:48:13.133Z,1008.35
2018-05-26T00:49:13.157Z,1008.36
2018-05-26T00:50:13.185Z,1008.33
2018-05-26T00:51:13.209Z,1008.35
2018-05-26T00:52:13.238Z,1008.38
2018-05-26T00:53:13.261Z,1008.38
2018-05-26T00:54:13.287Z,1008.38
2018-05-26T00:55:13.308Z,1008.37
2018-05-26T00:56:13.334Z,1008.36
2018-05-26T00:57:13.359Z,1008.4
2018-05-26T00:58:13.379Z,1008.4
2018-05-26T00:59:13.400Z,1008.4
2018-05-26T01:00:13.425Z,1008.43
2018-05-26T01:01:13.450Z,1008.39
2018-05-26T01:02:13.479Z,1008.4
2018-05-26T01:03:13.504Z,1008.39
2018-05-26T01:04:13.526Z,1008.4
2018-05-26T01:05:13.548Z,1008.4
2018-05-26T01:06:13.575Z,1008.39
2018-05-26T01:07:13.600Z,1008.36
2018-05-26T01:08:13.623Z,1008.38
2018-05-26T01:09:13.646Z,1008.4
2018-05-26T01:10:13.666Z,1008.36
2018-05-26T01:11:13.691Z,1008.35
2018-05-26T01:12:13.718Z,1008.4
2018-05-26T01:13:13.737Z,1008.39
2018-05-26T01:14:13.765Z,1008.36
2018-05-26T01:15:13.786Z,1008.39
2018-05-26T01:16:13.812Z,1008.37
2018-05-26T01:17:13.829Z,1008.43
2018-05-26T01:18:13.857Z,1008.42
2018-05-26T01:19:13.880Z,1008.46
2018-05-26T01:20:13.913Z,1008.43
2018-05-26T01:21:13.933Z,1008.42
2018-05-26T01:22:13.954Z,1008.43
2018-05-26T01:23:13.980Z,1008.43
2018-05-26T01:24:14.004Z,1008.45
2018-05-26T01:25:14.026Z,1008.42
2018-05-26T01:26:14.047Z,1008.44
2018-05-26T01:27:14.073Z,1008.41
2018-05-26T01:28:14.092Z,1008.43
2018-05-26T01:29:14.118Z,1008.45
2018-05-26T01:30:14.142Z,1008.47
2018-05-26T01:31:14.163Z,1008.45
2018-05-26T01:32:14.187Z,1008.43
2018-05-26T01:33:14.213Z,1008.42
2018-05-26T01:34:14.242Z,1008.42
2018-05-26T01:35:14.258Z,1008.41
2018-05-26T01:36:14.284Z,1008.49
2018-05-26T01:37:14.310Z,1008.45
2018-05-26T01:38:14.331Z,1008.45
2018-05-26T01:39:14.356Z,1008.41
2018-05-26T01:40:14.381Z,1008.45
2018-05-26T01:41:14.402Z,1008.42
2018-05-26T01:42:14.428Z,1008.44
2018-05-26T01:43:14.451Z,1008.43
2018-05-26T01:44:14.469Z,1008.47
2018-05-26T01:45:14.498Z,1008.47
2018-05-26T01:46:14.521Z,1008.52
2018-05-26T01:47:14.598Z,1008.54
2018-05-26T01:48:14.567Z,1008.54
2018-05-26T01:49:14.587Z,1008.53
2018-05-26T01:50:14.620Z,1008.57
2018-05-26T01:51:14.642Z,1008.51
2018-05-26T01:52:14.665Z,1008.5
2018-05-26T01:53:14.691Z,1008.49
2018-05-26T01:54:14.708Z,1008.51
2018-05-26T01:55:14.736Z,1008.49
2018-05-26T01:56:14.754Z,1008.49
2018-05-26T01:57:14.776Z,1008.51
2018-05-26T01:58:14.808Z,1008.53
2018-05-26T01:59:14.824Z,1008.53
2018-05-26T02:00:14.848Z,1008.52
2018-05-26T02:01:14.877Z,1008.55
2018-05-26T02:02:14.891Z,1008.53
2018-05-26T02:03:14.920Z,1008.52
2018-05-26T02:04:14.941Z,1008.49
2018-05-26T02:05:14.967Z,1008.46
2018-05-26T02:06:14.990Z,1008.43
2018-05-26T02:07:15.017Z,1008.44
2018-05-26T02:08:15.034Z,1008.47
2018-05-26T02:09:15.055Z,1008.51
2018-05-26T02:10:15.081Z,1008.45
2018-05-26T02:11:15.106Z,1008.49
2018-05-26T02:12:15.133Z,1008.48
2018-05-26T02:13:15.147Z,1008.48
2018-05-26T02:14:15.170Z,1008.47
2018-05-26T02:15:15.195Z,1008.5
2018-05-26T02:16:15.224Z,1008.48
2018-05-26T02:17:15.240Z,1008.48
2018-05-26T02:18:15.270Z,1008.47
2018-05-26T02:19:15.294Z,1008.51
2018-05-26T02:20:15.314Z,1008.51
2018-05-26T02:21:15.340Z,1008.51
2018-05-26T02:22:15.360Z,1008.49
2018-05-26T02:23:15.389Z,1008.52
2018-05-26T02:24:15.411Z,1008.57
2018-05-26T02:25:15.433Z,1008.59
2018-05-26T02:26:15.452Z,1008.62
2018-05-26T02:27:15.480Z,1008.64
2018-05-26T02:28:15.501Z,1008.67
2018-05-26T02:29:15.523Z,1008.7
2018-05-26T02:30:15.547Z,1008.72
2018-05-26T02:31:15.572Z,1008.71
2018-05-26T02:32:15.591Z,1008.73
2018-05-26T02:33:15.613Z,1008.73
2018-05-26T02:34:15.633Z,1008.76
2018-05-26T02:35:15.663Z,1008.76
2018-05-26T02:36:15.691Z,1008.78
2018-05-26T02:37:15.755Z,1008.82
2018-05-26T02:38:15.730Z,1008.76
2018-05-26T02:39:15.748Z,1008.77
2018-05-26T02:40:15.778Z,1008.77
2018-05-26T02:41:15.796Z,1008.73
2018-05-26T02:42:15.818Z,1008.74
2018-05-26T02:43:15.848Z,1008.74
2018-05-26T02:44:15.865Z,1008.72
2018-05-26T02:45:15.888Z,1008.71
2018-05-26T02:46:15.913Z,1008.72
2018-05-26T02:47:15.939Z,1008.68
2018-05-26T02:48:15.963Z,1008.72
2018-05-26T02:49:15.985Z,1008.78
2018-05-26T02:50:16.011Z,1008.78
2018-05-26T02:51:16.032Z,1008.8
2018-05-26T02:52:16.049Z,1008.79
2018-05-26T02:53:16.077Z,1008.81
2018-05-26T02:54:16.094Z,1008.77
2018-05-26T02:55:16.118Z,1008.8
2018-05-26T02:56:16.148Z,1008.84
2018-05-26T02:57:16.159Z,1008.86
2018-05-26T02:58:16.184Z,1008.87
2018-05-26T02:59:16.209Z,1008.86
2018-05-26T03:00:16.233Z,1008.88
2018-05-26T03:01:16.249Z,1008.87
2018-05-26T03:02:16.277Z,1008.87
2018-05-26T03:03:16.301Z,1008.84
2018-05-26T03:04:16.325Z,1008.86
2018-05-26T03:05:16.342Z,1008.84
2018-05-26T03:06:16.382Z,1008.82
2018-05-26T03:07:16.396Z,1008.84
2018-05-26T03:08:16.415Z,1008.84
2018-05-26T03:09:16.433Z,1008.87
2018-05-26T03:10:16.464Z,1008.8
2018-05-26T03:11:16.479Z,1008.8
2018-05-26T03:12:16.504Z,1008.81
2018-05-26T03:13:16.527Z,1008.85
2018-05-26T03:14:16.556Z,1008.85
2018-05-26T03:15:16.572Z,1008.85
2018-05-26T03:16:16.597Z,1008.84
2018-05-26T03:17:16.617Z,1008.84
2018-05-26T03:18:16.644Z,1008.85
2018-05-26T03:19:16.661Z,1008.82
2018-05-26T03:20:16.693Z,1008.81
2018-05-26T03:21:16.712Z,1008.85
2018-05-26T03:22:16.732Z,1008.82
2018-05-26T03:23:16.749Z,1008.86
2018-05-26T03:24:16.771Z,1008.84
2018-05-26T03:25:16.801Z,1008.85
2018-05-26T03:26:16.818Z,1008.85
2018-05-26T03:27:16.839Z,1008.85
2018-05-26T03:28:16.865Z,1008.82
2018-05-26T03:29:16.885Z,1008.84
2018-05-26T03:30:16.906Z,1008.83
2018-05-26T03:31:16.935Z,1008.83
2018-05-26T03:32:16.957Z,1008.81
2018-05-26T03:33:16.981Z,1008.83
2018-05-26T03:34:17.004Z,1008.84
2018-05-26T03:35:17.024Z,1008.82
2018-05-26T03:36:17.053Z,1008.84
2018-05-26T03:37:17.063Z,1008.83
2018-05-26T03:38:17.092Z,1008.84
2018-05-26T03:39:17.116Z,1008.87
2018-05-26T03:40:17.135Z,1008.89
2018-05-26T03:41:17.157Z,1008.87
2018-05-26T03:42:17.183Z,1008.87
2018-05-26T03:43:17.201Z,1008.92
2018-05-26T03:44:17.229Z,1008.92
2018-05-26T03:45:17.248Z,1008.9
2018-05-26T03:46:17.270Z,1008.91
2018-05-26T03:47:17.289Z,1008.88
2018-05-26T03:48:17.309Z,1008.9
2018-05-26T03:49:17.337Z,1008.91
2018-05-26T03:50:17.355Z,1008.92
2018-05-26T03:51:17.379Z,1008.9
2018-05-26T03:52:17.406Z,1008.89
2018-05-26T03:53:17.429Z,1008.94
2018-05-26T03:54:17.450Z,1008.91
2018-05-26T03:55:17.471Z,1008.93
2018-05-26T03:56:17.492Z,1008.91
2018-05-26T03:57:17.516Z,1008.88
2018-05-26T03:58:17.537Z,1008.89
2018-05-26T03:59:17.558Z,1008.89
2018-05-26T04:00:17.581Z,1008.88
2018-05-26T04:01:17.602Z,1008.93
2018-05-26T04:02:17.630Z,1008.93
2018-05-26T04:03:17.648Z,1008.88
2018-05-26T04:04:17.671Z,1008.91
2018-05-26T04:05:17.692Z,1008.94
2018-05-26T04:06:17.711Z,1008.94
2018-05-26T04:07:17.732Z,1008.91
2018-05-26T04:08:17.759Z,1008.93
2018-05-26T04:09:17.787Z,1008.93
2018-05-26T04:10:17.805Z,1008.9
2018-05-26T04:11:17.865Z,1008.95
2018-05-26T04:12:17.844Z,1008.98
2018-05-26T04:13:17.873Z,1008.95
2018-05-26T04:14:17.893Z,1008.97
2018-05-26T04:15:17.911Z,1009.05
2018-05-26T04:16:17.938Z,1008.98
2018-05-26T04:17:17.955Z,1009.05
2018-05-26T04:18:17.985Z,1009.04
2018-05-26T04:19:18.008Z,1009.02
2018-05-26T04:20:18.027Z,1009.07
2018-05-26T04:21:18.051Z,1009.03
2018-05-26T04:22:18.070Z,1009.02
2018-05-26T04:23:18.091Z,1009.06
2018-05-26T04:24:18.117Z,1009.01
2018-05-26T04:25:18.136Z,1009.06
2018-05-26T04:26:18.162Z,1009.07
2018-05-26T04:27:18.188Z,1009.11
2018-05-26T04:28:18.378Z,1009.09
2018-05-26T04:29:18.229Z,1009.09
2018-05-26T04:30:18.249Z,1009.09
2018-05-26T04:31:18.269Z,1009.12
2018-05-26T04:32:18.287Z,1009.11
2018-05-26T04:33:18.314Z,1009.15
2018-05-26T04:34:18.331Z,1009.12
2018-05-26T04:35:18.382Z,1009.12
2018-05-26T04:36:18.380Z,1009.15
2018-05-26T04:37:18.401Z,1009.17
2018-05-26T04:38:18.427Z,1009.16
2018-05-26T04:39:18.449Z,1009.14
2018-05-26T04:40:18.476Z,1009.13
2018-05-26T04:41:18.490Z,1009.17
2018-05-26T04:42:18.521Z,1009.12
2018-05-26T04:43:18.532Z,1009.19
2018-05-26T04:44:18.555Z,1009.12
2018-05-26T04:45:18.579Z,1009.15
2018-05-26T04:46:18.597Z,1009.15
2018-05-26T04:47:18.625Z,1009.16
2018-05-26T04:48:18.646Z,1009.19
2018-05-26T04:49:18.667Z,1009.18
2018-05-26T04:50:18.694Z,1009.16
2018-05-26T04:51:18.712Z,1009.19
2018-05-26T04:52:18.736Z,1009.18
2018-05-26T04:53:18.751Z,1009.17
2018-05-26T04:54:18.779Z,1009.19
2018-05-26T04:55:18.799Z,1009.15
2018-05-26T04:56:18.820Z,1009.17
2018-05-26T04:57:18.849Z,1009.19
2018-05-26T04:58:18.864Z,1009.19
2018-05-26T04:59:18.887Z,1009.2
2018-05-26T05:00:18.915Z,1009.17
2018-05-26T05:01:18.934Z,1009.2
2018-05-26T05:02:18.956Z,1009.22
2018-05-26T05:03:18.975Z,1009.22
2018-05-26T05:04:19.004Z,1009.23
2018-05-26T05:05:19.016Z,1009.28
2018-05-26T05:06:19.045Z,1009.32
2018-05-26T05:07:19.067Z,1009.3
2018-05-26T05:08:19.088Z,1009.27
2018-05-26T05:09:19.101Z,1009.33
2018-05-26T05:10:19.123Z,1009.33
2018-05-26T05:11:19.154Z,1009.29
2018-05-26T05:12:19.176Z,1009.27
2018-05-26T05:13:19.196Z,1009.31
2018-05-26T05:14:19.219Z,1009.3
2018-05-26T05:15:19.238Z,1009.3
2018-05-26T05:16:19.259Z,1009.31
2018-05-26T05:17:19.284Z,1009.32
2018-05-26T05:18:19.305Z,1009.32
2018-05-26T05:19:19.378Z,1009.33
2018-05-26T05:20:19.343Z,1009.34
2018-05-26T05:21:19.369Z,1009.33
2018-05-26T05:22:19.393Z,1009.38
2018-05-26T05:23:19.409Z,1009.37
2018-05-26T05:24:19.439Z,1009.34
2018-05-26T05:25:19.454Z,1009.38
2018-05-26T05:26:19.482Z,1009.38
2018-05-26T05:27:19.506Z,1009.36
2018-05-26T05:28:19.524Z,1009.33
2018-05-26T05:29:19.541Z,1009.3
2018-05-26T05:30:19.567Z,1009.32
2018-05-26T05:31:19.591Z,1009.32
2018-05-26T05:32:19.606Z,1009.31
2018-05-26T05:33:19.636Z,1009.31
2018-05-26T05:34:19.658Z,1009.32
2018-05-26T05:35:19.672Z,1009.35
2018-05-26T05:36:19.696Z,1009.35
2018-05-26T05:37:19.717Z,1009.36
2018-05-26T05:38:19.746Z,1009.42
2018-05-26T05:39:19.768Z,1009.35
2018-05-26T05:40:19.787Z,1009.35
2018-05-26T05:41:19.812Z,1009.37
2018-05-26T05:42:19.829Z,1009.4
2018-05-26T05:43:19.856Z,1009.4
2018-05-26T05:44:19.876Z,1009.38
2018-05-26T05:45:19.894Z,1009.42
2018-05-26T05:46:19.922Z,1009.43
2018-05-26T05:47:19.939Z,1009.42
2018-05-26T05:48:19.957Z,1009.44
2018-05-26T05:49:19.984Z,1009.45
2018-05-26T05:50:20.007Z,1009.49
2018-05-26T05:51:20.028Z,1009.47
2018-05-26T05:52:20.051Z,1009.48
2018-05-26T05:53:20.071Z,1009.46
2018-05-26T05:54:20.093Z,1009.48
2018-05-26T05:55:20.117Z,1009.49
2018-05-26T05:56:20.174Z,1009.5
2018-05-26T05:57:20.159Z,1009.48
2018-05-26T05:58:20.180Z,1009.48
2018-05-26T05:59:20.208Z,1009.49
2018-05-26T06:00:20.230Z,1009.5
2018-05-26T06:01:20.244Z,1009.45
2018-05-26T06:02:20.268Z,1009.48
2018-05-26T06:03:20.293Z,1009.49
2018-05-26T06:04:20.313Z,1009.51
2018-05-26T06:05:20.334Z,1009.54
2018-05-26T06:06:20.358Z,1009.53
2018-05-26T06:07:20.382Z,1009.54
2018-05-26T06:08:20.405Z,1009.58
2018-05-26T06:09:20.424Z,1009.53
2018-05-26T06:10:20.452Z,1009.57
2018-05-26T06:11:20.468Z,1009.56
2018-05-26T06:12:20.486Z,1009.58
2018-05-26T06:13:20.512Z,1009.59
2018-05-26T06:14:20.533Z,1009.57
2018-05-26T06:15:20.562Z,1009.59
2018-05-26T06:16:20.579Z,1009.61
2018-05-26T06:17:20.602Z,1009.58
2018-05-26T06:18:20.626Z,1009.62
2018-05-26T06:19:20.645Z,1009.61
2018-05-26T06:20:20.666Z,1009.65
2018-05-26T06:21:20.685Z,1009.65
2018-05-26T06:22:20.710Z,1009.67
2018-05-26T06:23:20.728Z,1009.66
2018-05-26T06:24:20.756Z,1009.7
2018-05-26T06:25:20.777Z,1009.69
2018-05-26T06:26:20.832Z,1009.66
2018-05-26T06:27:20.831Z,1009.69
2018-05-26T06:28:20.839Z,1009.69
2018-05-26T06:29:20.865Z,1009.72
2018-05-26T06:30:20.883Z,1009.7
2018-05-26T06:31:20.911Z,1009.69
2018-05-26T06:32:20.933Z,1009.7
2018-05-26T06:33:20.954Z,1009.71
2018-05-26T06:34:20.974Z,1009.73
2018-05-26T06:35:20.994Z,1009.72
2018-05-26T06:36:21.027Z,1009.73
2018-05-26T06:37:21.045Z,1009.74
2018-05-26T06:38:21.063Z,1009.71
2018-05-26T06:39:21.088Z,1009.78
2018-05-26T06:40:21.105Z,1009.75
2018-05-26T06:41:21.130Z,1009.76
2018-05-26T06:42:21.148Z,1009.77
2018-05-26T06:43:21.178Z,1009.75
2018-05-26T06:44:21.197Z,1009.77
2018-05-26T06:45:21.241Z,1009.77
2018-05-26T06:46:21.244Z,1009.77
2018-05-26T06:47:21.264Z,1009.75
2018-05-26T06:48:21.282Z,1009.8
2018-05-26T06:49:21.305Z,1009.83
2018-05-26T06:50:21.333Z,1009.81
2018-05-26T06:51:21.416Z,1009.82
2018-05-26T06:52:21.374Z,1009.8
2018-05-26T06:53:21.400Z,1009.84
2018-05-26T06:54:21.415Z,1009.83
2018-05-26T06:55:21.438Z,1009.85
2018-05-26T06:56:21.468Z,1009.84
2018-05-26T06:57:21.488Z,1009.84
2018-05-26T06:58:21.515Z,1009.83
2018-05-26T06:59:21.532Z,1009.83
2018-05-26T07:00:21.567Z,1009.86
2018-05-26T07:01:21.576Z,1009.81
2018-05-26T07:02:21.596Z,1009.78
2018-05-26T07:03:21.615Z,1009.79
2018-05-26T07:04:21.643Z,1009.82
2018-05-26T07:05:21.666Z,1009.83
2018-05-26T07:06:21.695Z,1009.87
2018-05-26T07:07:21.713Z,1009.84
2018-05-26T07:08:21.727Z,1009.87
2018-05-26T07:09:21.748Z,1009.83
2018-05-26T07:10:21.772Z,1009.88
2018-05-26T07:11:21.799Z,1009.83
2018-05-26T07:12:21.817Z,1009.84
2018-05-26T07:13:21.845Z,1009.83
2018-05-26T07:14:21.862Z,1009.84
2018-05-26T07:15:21.888Z,1009.83
2018-05-26T07:16:21.911Z,1009.8
2018-05-26T07:17:21.928Z,1009.82
2018-05-26T07:18:21.955Z,1009.84
2018-05-26T07:19:21.978Z,1009.84
2018-05-26T07:20:22.048Z,1009.82
2018-05-26T07:21:22.023Z,1009.83
2018-05-26T07:22:22.042Z,1009.82
2018-05-26T07:23:22.075Z,1009.85
2018-05-26T07:24:22.092Z,1009.9
2018-05-26T07:25:22.163Z,1009.86
2018-05-26T07:26:22.135Z,1009.84
2018-05-26T07:27:22.160Z,1009.85
2018-05-26T07:28:22.176Z,1009.83
2018-05-26T07:29:22.209Z,1009.83
2018-05-26T07:30:22.233Z,1009.79
2018-05-26T07:31:22.250Z,1009.8
2018-05-26T07:32:22.273Z,1009.84
2018-05-26T07:33:22.296Z,1009.83
2018-05-26T07:34:22.315Z,1009.81
2018-05-26T07:35:22.339Z,1009.84
2018-05-26T07:36:22.358Z,1009.82
2018-05-26T07:37:22.395Z,1009.81
2018-05-26T07:38:22.410Z,1009.85
2018-05-26T07:39:22.431Z,1009.85
2018-05-26T07:40:22.454Z,1009.87
2018-05-26T07:41:22.479Z,1009.88
2018-05-26T07:42:22.502Z,1009.91
2018-05-26T07:43:22.523Z,1009.88
2018-05-26T07:44:22.548Z,1009.87
2018-05-26T07:45:22.575Z,1009.89
2018-05-26T07:46:22.597Z,1009.87
2018-05-26T07:47:22.620Z,1009.91
2018-05-26T07:48:22.670Z,1009.9
2018-05-26T07:49:22.664Z,1009.94
2018-05-26T07:50:22.681Z,1009.89
2018-05-26T07:51:22.706Z,1009.89
2018-05-26T07:52:22.729Z,1009.87
2018-05-26T07:53:22.755Z,1009.88
2018-05-26T07:54:22.780Z,1009.86
2018-05-26T07:55:22.800Z,1009.88
2018-05-26T07:56:22.921Z,1009.88
2018-05-26T07:57:22.849Z,1009.89
2018-05-26T07:58:22.914Z,1009.87
2018-05-26T07:59:22.892Z,1009.86
2018-05-26T08:00:22.926Z,1009.86
2018-05-26T08:01:22.939Z,1009.86
2018-05-26T08:02:22.970Z,1009.85
2018-05-26T08:03:22.992Z,1009.84
2018-05-26T08:04:23.009Z,1009.87
2018-05-26T08:05:23.041Z,1009.87
2018-05-26T08:06:23.060Z,1009.88
2018-05-26T08:07:23.087Z,1009.9
2018-05-26T08:08:23.108Z,1009.94
2018-05-26T08:09:23.139Z,1009.9
2018-05-26T08:10:23.165Z,1009.93
2018-05-26T08:11:23.175Z,1009.9
2018-05-26T08:12:23.205Z,1009.93
2018-05-26T08:13:23.241Z,1009.92
2018-05-26T08:14:23.252Z,1009.89
2018-05-26T08:15:23.279Z,1009.9
2018-05-26T08:16:23.295Z,1009.89
2018-05-26T08:17:23.407Z,1009.88
2018-05-26T08:18:23.349Z,1009.9
2018-05-26T08:19:23.376Z,1009.88
2018-05-26T08:20:23.449Z,1009.91
2018-05-26T08:21:23.417Z,1009.94
2018-05-26T08:22:23.448Z,1009.96
2018-05-26T08:23:23.470Z,1009.93
2018-05-26T08:24:23.491Z,1009.95
2018-05-26T08:25:23.519Z,1009.98
2018-05-26T08:26:23.545Z,1009.96
2018-05-26T08:27:23.562Z,1009.97
2018-05-26T08:28:23.586Z,1009.98
2018-05-26T08:29:23.616Z,1009.97
2018-05-26T08:30:23.639Z,1009.98
2018-05-26T08:31:23.665Z,1010
2018-05-26T08:32:23.691Z,1010
2018-05-26T08:33:23.716Z,1009.99
2018-05-26T08:34:23.733Z,1010.04
2018-05-26T08:35:23.766Z,1010.01
2018-05-26T08:36:23.783Z,1010.02
2018-05-26T08:37:23.812Z,1010.05
2018-05-26T08:38:23.836Z,1009.99
2018-05-26T08:39:23.871Z,1010.02
2018-05-26T08:40:23.887Z,1009.99
2018-05-26T08:41:23.912Z,1010
2018-05-26T08:42:23.936Z,1009.97
2018-05-26T08:43:23.961Z,1009.97
2018-05-26T08:44:23.983Z,1009.97
2018-05-26T08:45:24.012Z,1009.97
2018-05-26T08:46:24.040Z,1009.92
2018-05-26T08:47:24.066Z,1009.96
2018-05-26T08:48:24.091Z,1009.9
2018-05-26T08:49:24.116Z,1009.89
2018-05-26T08:50:24.141Z,1009.88
2018-05-26T08:51:24.163Z,1009.87
2018-05-26T08:52:24.183Z,1009.85
2018-05-26T08:53:24.223Z,1009.86
2018-05-26T08:54:24.238Z,1009.91
2018-05-26T08:55:24.267Z,1009.86
2018-05-26T08:56:24.289Z,1009.9
2018-05-26T08:57:24.311Z,1009.91
2018-05-26T08:58:24.342Z,1009.94
2018-05-26T08:59:24.366Z,1009.96
2018-05-26T09:00:24.388Z,1009.94
2018-05-26T09:01:24.415Z,1009.97
2018-05-26T09:02:24.526Z,1009.96
2018-05-26T09:03:24.467Z,1009.93
2018-05-26T09:04:24.492Z,1009.94
2018-05-26T09:05:24.526Z,1009.91
2018-05-26T09:06:24.591Z,1009.88
2018-05-26T09:07:24.574Z,1009.89
2018-05-26T09:08:24.595Z,1009.88
2018-05-26T09:09:24.630Z,1009.92
2018-05-26T09:10:24.647Z,1009.89
2018-05-26T09:11:24.673Z,1009.9
2018-05-26T09:12:24.704Z,1009.92
2018-05-26T09:13:24.729Z,1009.91
2018-05-26T09:14:24.755Z,1009.92
2018-05-26T09:15:24.780Z,1009.9
2018-05-26T09:16:24.815Z,1009.92
2018-05-26T09:17:24.835Z,1009.89
2018-05-26T09:18:24.862Z,1009.87
2018-05-26T09:19:24.895Z,1009.88
2018-05-26T09:20:24.918Z,1009.9
2018-05-26T09:21:24.939Z,1009.89
2018-05-26T09:22:24.967Z,1009.9
2018-05-26T09:23:24.996Z,1009.86
2018-05-26T09:24:25.025Z,1009.85
2018-05-26T09:25:25.166Z,1009.87
2018-05-26T09:26:25.077Z,1009.85
2018-05-26T09:27:25.111Z,1009.83
2018-05-26T09:28:25.131Z,1009.82
2018-05-26T09:29:25.155Z,1009.79
2018-05-26T09:30:25.186Z,1009.84
2018-05-26T09:31:25.254Z,1009.78
2018-05-26T09:32:25.266Z,1009.83
2018-05-26T09:33:25.270Z,1009.86
2018-05-26T09:34:25.331Z,1009.87
2018-05-26T09:35:25.325Z,1009.9
2018-05-26T09:36:25.355Z,1009.91
2018-05-26T09:37:25.382Z,1009.92
2018-05-26T09:38:25.409Z,1009.91
2018-05-26T09:39:25.492Z,1009.89
2018-05-26T09:40:25.455Z,1009.88
2018-05-26T09:41:25.492Z,1009.87
2018-05-26T09:42:25.511Z,1009.86
2018-05-26T09:43:25.538Z,1009.84
2018-05-26T09:44:25.591Z,1009.8
2018-05-26T09:45:25.595Z,1009.82
2018-05-26T09:46:25.633Z,1009.85
2018-05-26T09:47:25.650Z,1009.85
2018-05-26T09:48:25.680Z,1009.85
2018-05-26T09:49:25.722Z,1009.85
2018-05-26T09:50:25.733Z,1009.86
2018-05-26T09:51:25.767Z,1009.83
2018-05-26T09:52:25.798Z,1009.86
2018-05-26T09:53:25.818Z,1009.83
2018-05-26T09:54:25.856Z,1009.83
2018-05-26T09:55:25.875Z,1009.84
2018-05-26T09:56:25.911Z,1009.82
2018-05-26T09:57:25.939Z,1009.81
2018-05-26T09:58:25.967Z,1009.87
2018-05-26T09:59:25.993Z,1009.84
2018-05-26T10:00:26.021Z,1009.83
2018-05-26T10:01:26.051Z,1009.84
2018-05-26T10:02:26.093Z,1009.84
2018-05-26T10:03:26.108Z,1009.79
2018-05-26T10:04:26.134Z,1009.81
2018-05-26T10:05:26.160Z,1009.79
2018-05-26T10:06:26.199Z,1009.82
2018-05-26T10:07:26.225Z,1009.81
2018-05-26T10:08:26.250Z,1009.79
2018-05-26T10:09:26.281Z,1009.79
2018-05-26T10:10:26.317Z,1009.78
2018-05-26T10:11:26.337Z,1009.8
2018-05-26T10:12:26.363Z,1009.8
2018-05-26T10:13:26.432Z,1009.78
2018-05-26T10:14:26.427Z,1009.79
2018-05-26T10:15:26.452Z,1009.79
2018-05-26T10:16:26.482Z,1009.82
2018-05-26T10:17:26.518Z,1009.82
2018-05-26T10:18:26.542Z,1009.82
2018-05-26T10:19:26.571Z,1009.78
2018-05-26T10:20:26.605Z,1009.81
2018-05-26T10:21:26.633Z,1009.79
2018-05-26T10:22:26.657Z,1009.82
2018-05-26T10:23:26.685Z,1009.81
2018-05-26T10:24:26.735Z,1009.84
2018-05-26T10:25:26.751Z,1009.84
2018-05-26T10:26:26.780Z,1009.83
2018-05-26T10:27:26.808Z,1009.79
2018-05-26T10:28:26.839Z,1009.82
2018-05-26T10:29:26.877Z,1009.82
2018-05-26T10:30:26.896Z,1009.81
2018-05-26T10:31:26.929Z,1009.81
2018-05-26T10:32:26.958Z,1009.81
2018-05-26T10:33:27.039Z,1009.81
2018-05-26T10:34:27.021Z,1009.82
2018-05-26T10:35:27.109Z,1009.85
2018-05-26T10:36:27.083Z,1009.82
2018-05-26T10:37:27.116Z,1009.81
2018-05-26T10:38:27.140Z,1009.78
2018-05-26T10:39:27.172Z,1009.78
2018-05-26T10:40:27.203Z,1009.82
2018-05-26T10:41:27.228Z,1009.81
2018-05-26T10:42:27.259Z,1009.78
2018-05-26T10:43:27.290Z,1009.78
2018-05-26T10:44:27.325Z,1009.79
2018-05-26T10:45:27.355Z,1009.79
2018-05-26T10:46:27.387Z,1009.8
2018-05-26T10:47:27.418Z,1009.78
2018-05-26T10:48:27.452Z,1009.81
2018-05-26T10:49:27.478Z,1009.77
2018-05-26T10:50:27.507Z,1009.79
2018-05-26T10:51:27.536Z,1009.82
2018-05-26T10:52:27.569Z,1009.9
2018-05-26T10:53:27.600Z,1009.9
2018-05-26T10:54:27.633Z,1009.91
2018-05-26T10:55:27.666Z,1009.95
2018-05-26T10:56:27.698Z,1009.95
2018-05-26T10:57:27.727Z,1009.86
2018-05-26T10:58:27.759Z,1009.87
2018-05-26T10:59:27.793Z,1009.9
2018-05-26T11:00:27.825Z,1009.93
2018-05-26T11:01:27.851Z,1009.94
2018-05-26T11:02:27.880Z,1009.94
2018-05-26T11:03:27.914Z,1009.9
2018-05-26T11:04:27.961Z,1009.91
2018-05-26T11:05:27.980Z,1009.84
2018-05-26T11:06:28.011Z,1009.86
2018-05-26T11:07:28.036Z,1009.88
2018-05-26T11:08:28.073Z,1009.86
2018-05-26T11:09:28.104Z,1009.86
2018-05-26T11:10:28.134Z,1009.87
2018-05-26T11:11:28.162Z,1009.83
2018-05-26T11:12:28.204Z,1009.84
2018-05-26T11:13:28.283Z,1009.82
2018-05-26T11:14:28.268Z,1009.85
2018-05-26T11:15:28.299Z,1009.87
2018-05-26T11:16:28.327Z,1009.89
2018-05-26T11:17:28.362Z,1009.9
2018-05-26T11:18:28.394Z,1009.91
2018-05-26T11:19:28.428Z,1009.92
2018-05-26T11:20:28.457Z,1009.92
2018-05-26T11:21:28.484Z,1009.92
2018-05-26T11:22:28.524Z,1009.93
2018-05-26T11:23:28.554Z,1009.93
2018-05-26T11:24:28.652Z,1009.9
2018-05-26T11:25:28.645Z,1009.92
2018-05-26T11:26:28.652Z,1009.93
2018-05-26T11:27:28.687Z,1009.91
2018-05-26T11:28:28.714Z,1009.88
2018-05-26T11:29:28.750Z,1009.91
2018-05-26T11:30:28.893Z,1009.9
2018-05-26T11:31:28.810Z,1009.86
2018-05-26T11:32:28.849Z,1009.88
2018-05-26T11:33:28.879Z,1009.88
2018-05-26T11:34:28.915Z,1009.89
2018-05-26T11:35:28.949Z,1009.84
2018-05-26T11:36:28.977Z,1009.86
2018-05-26T11:37:29.020Z,1009.86
2018-05-26T11:38:29.040Z,1009.84
2018-05-26T11:39:29.076Z,1009.84
2018-05-26T11:40:29.111Z,1009.85
2018-05-26T11:41:29.141Z,1009.8
2018-05-26T11:42:29.176Z,1009.8
2018-05-26T11:43:29.210Z,1009.79
2018-05-26T11:44:29.241Z,1009.8
2018-05-26T11:45:29.280Z,1009.82
2018-05-26T11:46:29.309Z,1009.8
2018-05-26T11:47:29.346Z,1009.8
2018-05-26T11:48:29.379Z,1009.75
2018-05-26T11:49:29.410Z,1009.76
2018-05-26T11:50:29.454Z,1009.76
2018-05-26T11:51:29.473Z,1009.77
2018-05-26T11:52:29.516Z,1009.76
2018-05-26T11:53:29.540Z,1009.77
2018-05-26T11:54:29.581Z,1009.71
2018-05-26T11:55:29.610Z,1009.75
2018-05-26T11:58:10.089Z,1009.76
2018-05-26T11:59:10.075Z,1009.73
2018-05-26T12:00:10.113Z,1009.72
2018-05-26T12:01:10.137Z,1009.74
2018-05-26T12:02:10.244Z,1009.76
2018-05-26T12:03:10.336Z,1009.76
2018-05-26T12:04:10.243Z,1009.74
2018-05-26T12:05:10.278Z,1009.74
2018-05-26T12:06:10.312Z,1009.74
2018-05-26T12:07:10.376Z,1009.72
2018-05-26T12:08:10.382Z,1009.71
2018-05-26T12:09:10.410Z,1009.73
2018-05-26T12:10:10.449Z,1009.71